sensor_id;sensor_type;location;lat;lon;timestamp;P1;durP1;ratioP1;P2;durP2;ratioP2
4519;SDS011;2272;49.226;8.108;2022-11-15T00:00:52;7.33;;;6.60;;
4519;SDS011;2272;49.226;8.108;2022-11-15T00:03:20;7.20;;;5.50;;
4519;SDS011;2272;49.226;8.108;2022-11-15T00:05:48;9.10;;;6.97;;
4519;SDS011;2272;49.226;8.108;2022-11-15T00:08:17;10.43;;;8.07;;
4519;SDS011;2272;49.226;8.108;2022-11-15T00:10:53;13.50;;;6.80;;
4519;SDS011;2272;49.226;8.108;2022-11-15T00:13:20;16.43;;;7.07;;
4519;SDS011;2272;49.226;8.108;2022-11-15T00:15:47;9.87;;;7.20;;
4519;SDS011;2272;49.226;8.108;2022-11-15T00:18:14;7.77;;;6.93;;
4519;SDS011;2272;49.226;8.108;2022-11-15T00:20:41;8.00;;;6.70;;
4519;SDS011;2272;49.226;8.108;2022-11-15T00:23:07;13.10;;;7.20;;
4519;SDS011;2272;49.226;8.108;2022-11-15T00:25:36;8.50;;;6.97;;
4519;SDS011;2272;49.226;8.108;2022-11-15T00:28:02;7.63;;;6.83;;
4519;SDS011;2272;49.226;8.108;2022-11-15T00:30:29;7.23;;;6.53;;
4519;SDS011;2272;49.226;8.108;2022-11-15T00:32:56;9.10;;;6.97;;
4519;SDS011;2272;49.226;8.108;2022-11-15T00:35:22;7.00;;;5.70;;
4519;SDS011;2272;49.226;8.108;2022-11-15T00:37:49;5.87;;;5.47;;
4519;SDS011;2272;49.226;8.108;2022-11-15T00:40:18;6.43;;;5.83;;
4519;SDS011;2272;49.226;8.108;2022-11-15T00:42:46;6.43;;;5.93;;
4519;SDS011;2272;49.226;8.108;2022-11-15T00:45:13;7.23;;;6.10;;
4519;SDS011;2272;49.226;8.108;2022-11-15T00:47:40;9.90;;;6.03;;
4519;SDS011;2272;49.226;8.108;2022-11-15T00:50:06;7.97;;;6.70;;
4519;SDS011;2272;49.226;8.108;2022-11-15T00:52:33;9.93;;;6.83;;
4519;SDS011;2272;49.226;8.108;2022-11-15T00:55:00;9.50;;;6.40;;
4519;SDS011;2272;49.226;8.108;2022-11-15T00:57:27;12.27;;;7.20;;
4519;SDS011;2272;49.226;8.108;2022-11-15T00:59:55;7.87;;;7.07;;
4519;SDS011;2272;49.226;8.108;2022-11-15T01:02:22;6.53;;;5.80;;
4519;SDS011;2272;49.226;8.108;2022-11-15T01:04:49;13.73;;;7.27;;
4519;SDS011;2272;49.226;8.108;2022-11-15T01:07:15;11.40;;;7.00;;
4519;SDS011;2272;49.226;8.108;2022-11-15T01:09:42;10.80;;;7.57;;
4519;SDS011;2272;49.226;8.108;2022-11-15T01:12:08;7.57;;;6.80;;
4519;SDS011;2272;49.226;8.108;2022-11-15T01:14:35;11.33;;;7.73;;
4519;SDS011;2272;49.226;8.108;2022-11-15T01:17:03;7.83;;;6.87;;
4519;SDS011;2272;49.226;8.108;2022-11-15T01:19:30;7.83;;;7.03;;
4519;SDS011;2272;49.226;8.108;2022-11-15T01:21:57;8.10;;;6.83;;
4519;SDS011;2272;49.226;8.108;2022-11-15T01:24:23;6.90;;;6.10;;
4519;SDS011;2272;49.226;8.108;2022-11-15T01:26:50;7.40;;;6.63;;
4519;SDS011;2272;49.226;8.108;2022-11-15T01:29:17;7.50;;;6.80;;
4519;SDS011;2272;49.226;8.108;2022-11-15T01:31:43;11.93;;;7.50;;
4519;SDS011;2272;49.226;8.108;2022-11-15T01:34:11;10.80;;;8.30;;
4519;SDS011;2272;49.226;8.108;2022-11-15T01:36:40;11.30;;;7.30;;
4519;SDS011;2272;49.226;8.108;2022-11-15T01:39:07;13.73;;;7.33;;
4519;SDS011;2272;49.226;8.108;2022-11-15T01:41:34;11.33;;;7.40;;
4519;SDS011;2272;49.226;8.108;2022-11-15T01:47:07;10.17;;;6.93;;
4519;SDS011;2272;49.226;8.108;2022-11-15T01:49:40;6.80;;;6.10;;
4519;SDS011;2272;49.226;8.108;2022-11-15T01:52:13;8.00;;;7.30;;
4519;SDS011;2272;49.226;8.108;2022-11-15T01:54:43;13.20;;;8.23;;
4519;SDS011;2272;49.226;8.108;2022-11-15T01:57:10;9.47;;;7.30;;
4519;SDS011;2272;49.226;8.108;2022-11-15T01:59:40;9.40;;;6.97;;
4519;SDS011;2272;49.226;8.108;2022-11-15T02:02:09;8.03;;;7.13;;
4519;SDS011;2272;49.226;8.108;2022-11-15T02:04:37;11.37;;;6.70;;
4519;SDS011;2272;49.226;8.108;2022-11-15T02:07:07;6.23;;;5.00;;
4519;SDS011;2272;49.226;8.108;2022-11-15T02:09:36;6.33;;;5.70;;
4519;SDS011;2272;49.226;8.108;2022-11-15T02:12:04;7.50;;;5.90;;
4519;SDS011;2272;49.226;8.108;2022-11-15T02:14:33;6.33;;;5.73;;
4519;SDS011;2272;49.226;8.108;2022-11-15T02:17:02;11.13;;;6.23;;
4519;SDS011;2272;49.226;8.108;2022-11-15T02:19:46;13.83;;;5.70;;
4519;SDS011;2272;49.226;8.108;2022-11-15T02:22:36;9.17;;;6.57;;
4519;SDS011;2272;49.226;8.108;2022-11-15T02:25:25;5.70;;;5.20;;
4519;SDS011;2272;49.226;8.108;2022-11-15T02:28:10;6.50;;;5.90;;
4519;SDS011;2272;49.226;8.108;2022-11-15T02:31:00;5.97;;;5.37;;
4519;SDS011;2272;49.226;8.108;2022-11-15T02:33:34;6.70;;;5.27;;
4519;SDS011;2272;49.226;8.108;2022-11-15T02:36:05;8.07;;;6.93;;
4519;SDS011;2272;49.226;8.108;2022-11-15T02:38:38;11.53;;;7.80;;
4519;SDS011;2272;49.226;8.108;2022-11-15T02:41:09;10.10;;;7.60;;
4519;SDS011;2272;49.226;8.108;2022-11-15T02:43:40;22.00;;;10.13;;
4519;SDS011;2272;49.226;8.108;2022-11-15T02:46:25;13.97;;;10.13;;
4519;SDS011;2272;49.226;8.108;2022-11-15T02:49:15;12.73;;;8.97;;
4519;SDS011;2272;49.226;8.108;2022-11-15T02:51:42;11.10;;;9.23;;
4519;SDS011;2272;49.226;8.108;2022-11-15T02:54:12;14.90;;;10.00;;
4519;SDS011;2272;49.226;8.108;2022-11-15T02:56:40;11.80;;;9.60;;
4519;SDS011;2272;49.226;8.108;2022-11-15T02:59:10;15.77;;;10.13;;
4519;SDS011;2272;49.226;8.108;2022-11-15T03:01:51;20.20;;;10.77;;
4519;SDS011;2272;49.226;8.108;2022-11-15T03:04:28;16.83;;;13.03;;
4519;SDS011;2272;49.226;8.108;2022-11-15T03:07:04;18.87;;;12.33;;
4519;SDS011;2272;49.226;8.108;2022-11-15T03:09:34;16.47;;;11.43;;
4519;SDS011;2272;49.226;8.108;2022-11-15T03:12:04;19.33;;;11.20;;
4519;SDS011;2272;49.226;8.108;2022-11-15T03:14:34;14.63;;;11.30;;
4519;SDS011;2272;49.226;8.108;2022-11-15T03:17:05;12.87;;;9.30;;
4519;SDS011;2272;49.226;8.108;2022-11-15T03:19:38;12.67;;;9.90;;
4519;SDS011;2272;49.226;8.108;2022-11-15T03:22:10;14.80;;;10.43;;
4519;SDS011;2272;49.226;8.108;2022-11-15T03:24:40;10.20;;;9.17;;
4519;SDS011;2272;49.226;8.108;2022-11-15T03:27:09;13.07;;;8.70;;
4519;SDS011;2272;49.226;8.108;2022-11-15T03:29:41;10.97;;;8.50;;
4519;SDS011;2272;49.226;8.108;2022-11-15T03:32:13;14.77;;;9.20;;
4519;SDS011;2272;49.226;8.108;2022-11-15T03:34:46;10.73;;;9.60;;
4519;SDS011;2272;49.226;8.108;2022-11-15T03:37:17;10.13;;;9.10;;
4519;SDS011;2272;49.226;8.108;2022-11-15T03:39:47;9.50;;;8.43;;
4519;SDS011;2272;49.226;8.108;2022-11-15T03:42:17;11.33;;;8.63;;
4519;SDS011;2272;49.226;8.108;2022-11-15T03:44:51;10.33;;;9.23;;
4519;SDS011;2272;49.226;8.108;2022-11-15T03:47:25;10.63;;;8.93;;
4519;SDS011;2272;49.226;8.108;2022-11-15T03:49:58;15.33;;;11.20;;
4519;SDS011;2272;49.226;8.108;2022-11-15T03:52:31;10.30;;;9.30;;
4519;SDS011;2272;49.226;8.108;2022-11-15T03:54:59;11.07;;;9.73;;
4519;SDS011;2272;49.226;8.108;2022-11-15T03:57:29;15.57;;;9.70;;
4519;SDS011;2272;49.226;8.108;2022-11-15T03:59:56;10.67;;;8.63;;
4519;SDS011;2272;49.226;8.108;2022-11-15T04:02:24;13.07;;;10.93;;
4519;SDS011;2272;49.226;8.108;2022-11-15T04:04:51;13.67;;;9.57;;
4519;SDS011;2272;49.226;8.108;2022-11-15T04:07:18;13.80;;;9.30;;
4519;SDS011;2272;49.226;8.108;2022-11-15T04:09:44;15.03;;;9.50;;
4519;SDS011;2272;49.226;8.108;2022-11-15T04:12:25;12.07;;;9.83;;
4519;SDS011;2272;49.226;8.108;2022-11-15T04:14:57;14.03;;;9.30;;
4519;SDS011;2272;49.226;8.108;2022-11-15T04:17:35;13.50;;;9.63;;
4519;SDS011;2272;49.226;8.108;2022-11-15T04:20:02;12.10;;;9.07;;
4519;SDS011;2272;49.226;8.108;2022-11-15T04:22:47;12.47;;;8.80;;
4519;SDS011;2272;49.226;8.108;2022-11-15T04:25:31;10.30;;;9.00;;
4519;SDS011;2272;49.226;8.108;2022-11-15T04:27:58;18.30;;;11.97;;
4519;SDS011;2272;49.226;8.108;2022-11-15T04:30:25;11.90;;;9.83;;
4519;SDS011;2272;49.226;8.108;2022-11-15T04:32:53;11.20;;;9.87;;
4519;SDS011;2272;49.226;8.108;2022-11-15T04:35:19;15.87;;;9.23;;
4519;SDS011;2272;49.226;8.108;2022-11-15T04:37:46;11.20;;;10.00;;
4519;SDS011;2272;49.226;8.108;2022-11-15T04:40:12;9.30;;;8.30;;
4519;SDS011;2272;49.226;8.108;2022-11-15T04:42:40;11.40;;;8.90;;
4519;SDS011;2272;49.226;8.108;2022-11-15T04:45:07;12.57;;;9.90;;
4519;SDS011;2272;49.226;8.108;2022-11-15T04:47:34;12.03;;;9.63;;
4519;SDS011;2272;49.226;8.108;2022-11-15T04:50:03;10.50;;;8.80;;
4519;SDS011;2272;49.226;8.108;2022-11-15T04:52:30;15.07;;;10.23;;
4519;SDS011;2272;49.226;8.108;2022-11-15T04:54:57;17.10;;;10.33;;
4519;SDS011;2272;49.226;8.108;2022-11-15T04:57:23;13.43;;;9.90;;
4519;SDS011;2272;49.226;8.108;2022-11-15T04:59:50;10.07;;;9.07;;
4519;SDS011;2272;49.226;8.108;2022-11-15T05:02:17;20.60;;;11.47;;
4519;SDS011;2272;49.226;8.108;2022-11-15T05:04:43;16.10;;;10.30;;
4519;SDS011;2272;49.226;8.108;2022-11-15T05:07:11;20.07;;;9.90;;
4519;SDS011;2272;49.226;8.108;2022-11-15T05:09:37;17.07;;;11.53;;
4519;SDS011;2272;49.226;8.108;2022-11-15T05:12:04;15.23;;;11.10;;
4519;SDS011;2272;49.226;8.108;2022-11-15T05:14:31;16.27;;;10.17;;
4519;SDS011;2272;49.226;8.108;2022-11-15T05:16:58;10.97;;;9.47;;
4519;SDS011;2272;49.226;8.108;2022-11-15T05:19:24;11.90;;;10.07;;
4519;SDS011;2272;49.226;8.108;2022-11-15T05:21:51;11.57;;;9.30;;
4519;SDS011;2272;49.226;8.108;2022-11-15T05:24:19;10.10;;;9.00;;
4519;SDS011;2272;49.226;8.108;2022-11-15T05:26:46;9.33;;;8.30;;
4519;SDS011;2272;49.226;8.108;2022-11-15T05:29:12;9.23;;;8.23;;
4519;SDS011;2272;49.226;8.108;2022-11-15T05:31:39;15.73;;;8.47;;
4519;SDS011;2272;49.226;8.108;2022-11-15T05:34:07;15.50;;;10.87;;
4519;SDS011;2272;49.226;8.108;2022-11-15T05:36:34;12.13;;;10.77;;
4519;SDS011;2272;49.226;8.108;2022-11-15T05:39:03;11.37;;;8.77;;
4519;SDS011;2272;49.226;8.108;2022-11-15T05:41:33;12.27;;;9.60;;
4519;SDS011;2272;49.226;8.108;2022-11-15T05:44:03;9.70;;;8.10;;
4519;SDS011;2272;49.226;8.108;2022-11-15T05:46:33;10.67;;;9.57;;
4519;SDS011;2272;49.226;8.108;2022-11-15T05:49:03;12.13;;;8.30;;
4519;SDS011;2272;49.226;8.108;2022-11-15T05:51:33;10.80;;;9.40;;
4519;SDS011;2272;49.226;8.108;2022-11-15T05:54:00;11.23;;;8.77;;
4519;SDS011;2272;49.226;8.108;2022-11-15T05:56:28;10.50;;;9.50;;
4519;SDS011;2272;49.226;8.108;2022-11-15T05:58:56;11.90;;;9.17;;
4519;SDS011;2272;49.226;8.108;2022-11-15T06:01:24;9.77;;;8.67;;
4519;SDS011;2272;49.226;8.108;2022-11-15T06:03:51;8.13;;;7.37;;
4519;SDS011;2272;49.226;8.108;2022-11-15T06:06:18;13.13;;;8.60;;
4519;SDS011;2272;49.226;8.108;2022-11-15T06:08:45;11.00;;;9.73;;
4519;SDS011;2272;49.226;8.108;2022-11-15T06:11:12;10.43;;;9.10;;
4519;SDS011;2272;49.226;8.108;2022-11-15T06:13:40;9.80;;;8.60;;
4519;SDS011;2272;49.226;8.108;2022-11-15T06:16:08;14.53;;;8.10;;
4519;SDS011;2272;49.226;8.108;2022-11-15T06:18:35;12.17;;;9.00;;
4519;SDS011;2272;49.226;8.108;2022-11-15T06:21:02;13.03;;;9.60;;
4519;SDS011;2272;49.226;8.108;2022-11-15T06:23:31;12.10;;;9.10;;
4519;SDS011;2272;49.226;8.108;2022-11-15T06:25:59;9.67;;;8.33;;
4519;SDS011;2272;49.226;8.108;2022-11-15T06:28:27;9.80;;;8.73;;
4519;SDS011;2272;49.226;8.108;2022-11-15T06:30:54;11.47;;;8.73;;
4519;SDS011;2272;49.226;8.108;2022-11-15T06:33:23;9.23;;;8.10;;
4519;SDS011;2272;49.226;8.108;2022-11-15T06:35:50;8.43;;;7.53;;
4519;SDS011;2272;49.226;8.108;2022-11-15T06:38:17;8.60;;;7.63;;
4519;SDS011;2272;49.226;8.108;2022-11-15T06:40:44;11.40;;;9.63;;
4519;SDS011;2272;49.226;8.108;2022-11-15T06:43:11;12.53;;;10.87;;
4519;SDS011;2272;49.226;8.108;2022-11-15T06:45:38;18.50;;;12.20;;
4519;SDS011;2272;49.226;8.108;2022-11-15T06:48:05;17.40;;;11.70;;
4519;SDS011;2272;49.226;8.108;2022-11-15T06:50:33;18.40;;;12.07;;
4519;SDS011;2272;49.226;8.108;2022-11-15T06:53:00;12.40;;;10.60;;
4519;SDS011;2272;49.226;8.108;2022-11-15T06:55:29;14.67;;;11.97;;
4519;SDS011;2272;49.226;8.108;2022-11-15T06:57:56;14.77;;;12.30;;
4519;SDS011;2272;49.226;8.108;2022-11-15T07:00:23;16.60;;;11.40;;
4519;SDS011;2272;49.226;8.108;2022-11-15T07:02:50;14.53;;;12.00;;
4519;SDS011;2272;49.226;8.108;2022-11-15T07:05:17;13.73;;;10.97;;
4519;SDS011;2272;49.226;8.108;2022-11-15T07:07:51;18.63;;;12.77;;
4519;SDS011;2272;49.226;8.108;2022-11-15T07:10:19;14.27;;;10.03;;
4519;SDS011;2272;49.226;8.108;2022-11-15T07:12:46;17.03;;;10.80;;
4519;SDS011;2272;49.226;8.108;2022-11-15T07:15:13;12.23;;;10.43;;
4519;SDS011;2272;49.226;8.108;2022-11-15T07:17:40;12.30;;;9.80;;
4519;SDS011;2272;49.226;8.108;2022-11-15T07:20:07;14.63;;;10.17;;
4519;SDS011;2272;49.226;8.108;2022-11-15T07:22:34;13.87;;;9.40;;
4519;SDS011;2272;49.226;8.108;2022-11-15T07:25:02;12.37;;;9.50;;
4519;SDS011;2272;49.226;8.108;2022-11-15T07:27:30;9.40;;;7.93;;
4519;SDS011;2272;49.226;8.108;2022-11-15T07:29:57;9.30;;;8.40;;
4519;SDS011;2272;49.226;8.108;2022-11-15T07:32:23;20.20;;;8.93;;
4519;SDS011;2272;49.226;8.108;2022-11-15T07:34:50;11.60;;;8.37;;
4519;SDS011;2272;49.226;8.108;2022-11-15T07:37:17;9.47;;;8.20;;
4519;SDS011;2272;49.226;8.108;2022-11-15T07:39:44;8.37;;;7.60;;
4519;SDS011;2272;49.226;8.108;2022-11-15T07:42:12;10.90;;;8.23;;
4519;SDS011;2272;49.226;8.108;2022-11-15T07:44:56;7.80;;;7.10;;
4519;SDS011;2272;49.226;8.108;2022-11-15T07:47:23;8.03;;;7.17;;
4519;SDS011;2272;49.226;8.108;2022-11-15T07:49:50;8.50;;;6.60;;
4519;SDS011;2272;49.226;8.108;2022-11-15T07:52:17;8.40;;;7.60;;
4519;SDS011;2272;49.226;8.108;2022-11-15T07:54:43;7.00;;;6.50;;
4519;SDS011;2272;49.226;8.108;2022-11-15T07:57:10;7.57;;;6.77;;
4519;SDS011;2272;49.226;8.108;2022-11-15T07:59:38;6.30;;;5.70;;
4519;SDS011;2272;49.226;8.108;2022-11-15T08:02:05;8.80;;;6.23;;
4519;SDS011;2272;49.226;8.108;2022-11-15T08:04:31;6.10;;;5.53;;
4519;SDS011;2272;49.226;8.108;2022-11-15T08:06:58;5.67;;;5.27;;
4519;SDS011;2272;49.226;8.108;2022-11-15T08:09:25;8.30;;;7.50;;
4519;SDS011;2272;49.226;8.108;2022-11-15T08:11:51;10.33;;;9.23;;
4519;SDS011;2272;49.226;8.108;2022-11-15T08:14:18;12.07;;;10.27;;
4519;SDS011;2272;49.226;8.108;2022-11-15T08:16:48;11.40;;;8.73;;
4519;SDS011;2272;49.226;8.108;2022-11-15T08:19:15;12.43;;;9.50;;
4519;SDS011;2272;49.226;8.108;2022-11-15T08:21:41;10.80;;;9.30;;
4519;SDS011;2272;49.226;8.108;2022-11-15T08:24:08;26.90;;;13.03;;
4519;SDS011;2272;49.226;8.108;2022-11-15T08:26:36;12.97;;;10.73;;
4519;SDS011;2272;49.226;8.108;2022-11-15T08:29:03;17.17;;;12.30;;
4519;SDS011;2272;49.226;8.108;2022-11-15T08:31:29;14.47;;;11.47;;
4519;SDS011;2272;49.226;8.108;2022-11-15T08:33:57;14.23;;;12.03;;
4519;SDS011;2272;49.226;8.108;2022-11-15T08:36:24;17.47;;;13.67;;
4519;SDS011;2272;49.226;8.108;2022-11-15T08:38:51;21.13;;;14.67;;
4519;SDS011;2272;49.226;8.108;2022-11-15T08:41:19;18.93;;;14.00;;
4519;SDS011;2272;49.226;8.108;2022-11-15T08:43:50;14.83;;;12.93;;
4519;SDS011;2272;49.226;8.108;2022-11-15T08:46:17;21.90;;;14.03;;
4519;SDS011;2272;49.226;8.108;2022-11-15T08:48:44;15.40;;;12.03;;
4519;SDS011;2272;49.226;8.108;2022-11-15T08:51:12;17.67;;;13.37;;
4519;SDS011;2272;49.226;8.108;2022-11-15T08:53:39;15.17;;;11.17;;
4519;SDS011;2272;49.226;8.108;2022-11-15T08:56:06;12.27;;;11.00;;
4519;SDS011;2272;49.226;8.108;2022-11-15T08:58:33;13.57;;;11.17;;
4519;SDS011;2272;49.226;8.108;2022-11-15T09:01:00;16.80;;;11.13;;
4519;SDS011;2272;49.226;8.108;2022-11-15T09:03:27;11.30;;;8.57;;
4519;SDS011;2272;49.226;8.108;2022-11-15T09:05:55;14.97;;;10.70;;
4519;SDS011;2272;49.226;8.108;2022-11-15T09:08:23;18.37;;;12.60;;
4519;SDS011;2272;49.226;8.108;2022-11-15T09:10:50;17.07;;;13.10;;
4519;SDS011;2272;49.226;8.108;2022-11-15T09:13:17;22.93;;;14.77;;
4519;SDS011;2272;49.226;8.108;2022-11-15T09:15:45;16.97;;;13.53;;
4519;SDS011;2272;49.226;8.108;2022-11-15T09:18:12;25.00;;;14.13;;
4519;SDS011;2272;49.226;8.108;2022-11-15T09:20:39;17.57;;;15.00;;
4519;SDS011;2272;49.226;8.108;2022-11-15T09:23:05;24.20;;;13.23;;
4519;SDS011;2272;49.226;8.108;2022-11-15T09:25:34;18.67;;;13.60;;
4519;SDS011;2272;49.226;8.108;2022-11-15T09:28:00;20.47;;;13.03;;
4519;SDS011;2272;49.226;8.108;2022-11-15T09:30:32;15.07;;;12.40;;
4519;SDS011;2272;49.226;8.108;2022-11-15T09:32:59;17.93;;;14.03;;
4519;SDS011;2272;49.226;8.108;2022-11-15T09:35:32;18.27;;;13.37;;
4519;SDS011;2272;49.226;8.108;2022-11-15T09:37:59;16.67;;;12.00;;
4519;SDS011;2272;49.226;8.108;2022-11-15T09:40:26;11.63;;;10.33;;
4519;SDS011;2272;49.226;8.108;2022-11-15T09:43:02;12.63;;;10.90;;
4519;SDS011;2272;49.226;8.108;2022-11-15T09:45:37;10.23;;;9.07;;
4519;SDS011;2272;49.226;8.108;2022-11-15T09:48:25;13.30;;;11.13;;
4519;SDS011;2272;49.226;8.108;2022-11-15T09:51:08;14.67;;;10.10;;
4519;SDS011;2272;49.226;8.108;2022-11-15T09:53:41;12.10;;;9.97;;
4519;SDS011;2272;49.226;8.108;2022-11-15T09:56:14;11.00;;;9.53;;
4519;SDS011;2272;49.226;8.108;2022-11-15T09:58:47;15.57;;;11.80;;
4519;SDS011;2272;49.226;8.108;2022-11-15T10:01:23;15.40;;;11.43;;
4519;SDS011;2272;49.226;8.108;2022-11-15T10:03:59;11.70;;;10.00;;
4519;SDS011;2272;49.226;8.108;2022-11-15T10:06:26;13.07;;;9.87;;
4519;SDS011;2272;49.226;8.108;2022-11-15T10:08:55;15.33;;;10.50;;
4519;SDS011;2272;49.226;8.108;2022-11-15T10:11:32;13.00;;;10.53;;
4519;SDS011;2272;49.226;8.108;2022-11-15T10:14:04;13.40;;;10.67;;
4519;SDS011;2272;49.226;8.108;2022-11-15T10:19:45;12.23;;;9.90;;
4519;SDS011;2272;49.226;8.108;2022-11-15T10:22:21;10.97;;;9.40;;
4519;SDS011;2272;49.226;8.108;2022-11-15T10:24:58;13.23;;;9.97;;
4519;SDS011;2272;49.226;8.108;2022-11-15T10:27:37;16.70;;;9.30;;
4519;SDS011;2272;49.226;8.108;2022-11-15T10:30:10;10.57;;;8.50;;
4519;SDS011;2272;49.226;8.108;2022-11-15T10:32:39;9.00;;;8.00;;
4519;SDS011;2272;49.226;8.108;2022-11-15T10:35:24;10.73;;;9.03;;
4519;SDS011;2272;49.226;8.108;2022-11-15T10:37:56;19.10;;;8.70;;
4519;SDS011;2272;49.226;8.108;2022-11-15T10:40:31;8.87;;;7.80;;
4519;SDS011;2272;49.226;8.108;2022-11-15T10:43:03;12.07;;;7.13;;
4519;SDS011;2272;49.226;8.108;2022-11-15T10:45:33;15.03;;;10.20;;
4519;SDS011;2272;49.226;8.108;2022-11-15T10:48:18;13.93;;;8.70;;
4519;SDS011;2272;49.226;8.108;2022-11-15T10:50:48;10.50;;;7.93;;
4519;SDS011;2272;49.226;8.108;2022-11-15T10:53:17;15.23;;;8.20;;
4519;SDS011;2272;49.226;8.108;2022-11-15T10:55:51;8.60;;;7.37;;
4519;SDS011;2272;49.226;8.108;2022-11-15T10:58:21;7.17;;;6.20;;
4519;SDS011;2272;49.226;8.108;2022-11-15T11:00:58;7.80;;;6.20;;
4519;SDS011;2272;49.226;8.108;2022-11-15T11:03:36;14.50;;;7.40;;
4519;SDS011;2272;49.226;8.108;2022-11-15T11:06:05;8.07;;;6.53;;
4519;SDS011;2272;49.226;8.108;2022-11-15T11:08:33;14.93;;;5.80;;
4519;SDS011;2272;49.226;8.108;2022-11-15T11:11:00;6.63;;;5.13;;
4519;SDS011;2272;49.226;8.108;2022-11-15T11:13:29;5.27;;;4.77;;
4519;SDS011;2272;49.226;8.108;2022-11-15T11:16:00;8.60;;;5.83;;
4519;SDS011;2272;49.226;8.108;2022-11-15T11:18:49;8.30;;;5.50;;
4519;SDS011;2272;49.226;8.108;2022-11-15T11:21:26;8.37;;;5.43;;
4519;SDS011;2272;49.226;8.108;2022-11-15T11:24:03;6.97;;;4.93;;
4519;SDS011;2272;49.226;8.108;2022-11-15T11:26:40;7.43;;;5.23;;
4519;SDS011;2272;49.226;8.108;2022-11-15T11:29:20;16.90;;;6.60;;
4519;SDS011;2272;49.226;8.108;2022-11-15T11:31:58;9.23;;;5.43;;
4519;SDS011;2272;49.226;8.108;2022-11-15T11:34:35;12.33;;;5.03;;
4519;SDS011;2272;49.226;8.108;2022-11-15T11:37:11;5.33;;;4.87;;
4519;SDS011;2272;49.226;8.108;2022-11-15T11:39:46;7.07;;;4.87;;
4519;SDS011;2272;49.226;8.108;2022-11-15T11:42:25;5.33;;;4.80;;
4519;SDS011;2272;49.226;8.108;2022-11-15T11:45:01;5.90;;;4.73;;
4519;SDS011;2272;49.226;8.108;2022-11-15T11:47:44;9.37;;;4.83;;
4519;SDS011;2272;49.226;8.108;2022-11-15T11:50:14;7.27;;;5.10;;
4519;SDS011;2272;49.226;8.108;2022-11-15T11:52:48;4.40;;;4.00;;
4519;SDS011;2272;49.226;8.108;2022-11-15T11:55:23;4.37;;;4.07;;
4519;SDS011;2272;49.226;8.108;2022-11-15T11:57:56;5.40;;;4.87;;
4519;SDS011;2272;49.226;8.108;2022-11-15T12:00:29;4.37;;;3.97;;
4519;SDS011;2272;49.226;8.108;2022-11-15T12:03:04;12.03;;;5.00;;
4519;SDS011;2272;49.226;8.108;2022-11-15T12:05:39;5.07;;;4.67;;
4519;SDS011;2272;49.226;8.108;2022-11-15T12:10:59;4.23;;;3.93;;
4519;SDS011;2272;49.226;8.108;2022-11-15T12:13:30;7.23;;;4.87;;
4519;SDS011;2272;49.226;8.108;2022-11-15T12:16:03;6.50;;;5.60;;
4519;SDS011;2272;49.226;8.108;2022-11-15T12:18:37;6.47;;;5.33;;
4519;SDS011;2272;49.226;8.108;2022-11-15T12:21:05;5.47;;;4.97;;
4519;SDS011;2272;49.226;8.108;2022-11-15T12:23:40;6.80;;;4.73;;
4519;SDS011;2272;49.226;8.108;2022-11-15T12:26:11;5.13;;;4.63;;
4519;SDS011;2272;49.226;8.108;2022-11-15T12:28:45;11.93;;;5.63;;
4519;SDS011;2272;49.226;8.108;2022-11-15T12:31:16;8.50;;;4.33;;
4519;SDS011;2272;49.226;8.108;2022-11-15T12:33:48;5.33;;;4.60;;
4519;SDS011;2272;49.226;8.108;2022-11-15T12:36:30;5.10;;;4.63;;
4519;SDS011;2272;49.226;8.108;2022-11-15T12:39:03;5.10;;;4.53;;
4519;SDS011;2272;49.226;8.108;2022-11-15T12:41:31;5.63;;;5.13;;
4519;SDS011;2272;49.226;8.108;2022-11-15T12:43:59;10.70;;;6.37;;
4519;SDS011;2272;49.226;8.108;2022-11-15T12:49:48;8.13;;;5.70;;
4519;SDS011;2272;49.226;8.108;2022-11-15T12:52:15;4.80;;;4.40;;
4519;SDS011;2272;49.226;8.108;2022-11-15T12:54:52;6.10;;;4.20;;
4519;SDS011;2272;49.226;8.108;2022-11-15T12:57:34;4.90;;;4.50;;
4519;SDS011;2272;49.226;8.108;2022-11-15T13:00:19;14.20;;;4.13;;
4519;SDS011;2272;49.226;8.108;2022-11-15T13:03:16;4.57;;;4.17;;
4519;SDS011;2272;49.226;8.108;2022-11-15T13:05:59;5.63;;;5.03;;
4519;SDS011;2272;49.226;8.108;2022-11-15T13:08:38;3.20;;;2.97;;
4519;SDS011;2272;49.226;8.108;2022-11-15T13:19:59;8.80;;;3.77;;
4519;SDS011;2272;49.226;8.108;2022-11-15T13:22:39;13.17;;;6.10;;
4519;SDS011;2272;49.226;8.108;2022-11-15T13:25:36;9.07;;;5.90;;
4519;SDS011;2272;49.226;8.108;2022-11-15T13:28:23;21.53;;;8.20;;
4519;SDS011;2272;49.226;8.108;2022-11-15T13:30:57;12.47;;;5.70;;
4519;SDS011;2272;49.226;8.108;2022-11-15T13:33:29;15.03;;;6.90;;
4519;SDS011;2272;49.226;8.108;2022-11-15T13:36:00;17.20;;;6.87;;
4519;SDS011;2272;49.226;8.108;2022-11-15T13:38:31;5.07;;;4.30;;
4519;SDS011;2272;49.226;8.108;2022-11-15T13:41:00;20.77;;;3.80;;
4519;SDS011;2272;49.226;8.108;2022-11-15T13:43:40;3.60;;;3.30;;
4519;SDS011;2272;49.226;8.108;2022-11-15T13:46:11;3.20;;;2.90;;
4519;SDS011;2272;49.226;8.108;2022-11-15T13:48:39;3.60;;;3.30;;
4519;SDS011;2272;49.226;8.108;2022-11-15T13:51:08;6.27;;;3.00;;
4519;SDS011;2272;49.226;8.108;2022-11-15T13:53:42;4.40;;;3.30;;
4519;SDS011;2272;49.226;8.108;2022-11-15T13:56:12;5.40;;;4.13;;
4519;SDS011;2272;49.226;8.108;2022-11-15T13:58:40;3.27;;;3.07;;
4519;SDS011;2272;49.226;8.108;2022-11-15T14:01:11;4.00;;;3.20;;
4519;SDS011;2272;49.226;8.108;2022-11-15T14:03:41;7.20;;;3.70;;
4519;SDS011;2272;49.226;8.108;2022-11-15T14:06:15;7.87;;;4.63;;
4519;SDS011;2272;49.226;8.108;2022-11-15T14:08:58;4.40;;;4.00;;
4519;SDS011;2272;49.226;8.108;2022-11-15T14:11:48;5.20;;;3.50;;
4519;SDS011;2272;49.226;8.108;2022-11-15T14:14:19;4.87;;;4.47;;
4519;SDS011;2272;49.226;8.108;2022-11-15T14:16:48;6.70;;;4.90;;
4519;SDS011;2272;49.226;8.108;2022-11-15T14:19:33;8.17;;;5.37;;
4519;SDS011;2272;49.226;8.108;2022-11-15T14:25:06;6.43;;;5.83;;
4519;SDS011;2272;49.226;8.108;2022-11-15T14:27:41;6.63;;;5.37;;
4519;SDS011;2272;49.226;8.108;2022-11-15T14:30:12;6.03;;;5.43;;
4519;SDS011;2272;49.226;8.108;2022-11-15T14:32:42;8.40;;;5.13;;
4519;SDS011;2272;49.226;8.108;2022-11-15T14:35:11;4.23;;;3.93;;
4519;SDS011;2272;49.226;8.108;2022-11-15T14:37:41;4.70;;;4.30;;
4519;SDS011;2272;49.226;8.108;2022-11-15T14:40:12;4.33;;;3.93;;
4519;SDS011;2272;49.226;8.108;2022-11-15T14:42:40;16.20;;;5.10;;
4519;SDS011;2272;49.226;8.108;2022-11-15T14:45:09;5.33;;;4.70;;
4519;SDS011;2272;49.226;8.108;2022-11-15T14:47:39;5.23;;;4.50;;
4519;SDS011;2272;49.226;8.108;2022-11-15T14:50:06;4.43;;;3.93;;
4519;SDS011;2272;49.226;8.108;2022-11-15T14:52:37;5.50;;;4.60;;
4519;SDS011;2272;49.226;8.108;2022-11-15T14:55:10;6.03;;;4.97;;
4519;SDS011;2272;49.226;8.108;2022-11-15T14:57:42;14.73;;;7.20;;
4519;SDS011;2272;49.226;8.108;2022-11-15T15:00:10;10.43;;;7.57;;
4519;SDS011;2272;49.226;8.108;2022-11-15T15:02:38;10.03;;;7.90;;
4519;SDS011;2272;49.226;8.108;2022-11-15T15:05:11;12.07;;;8.10;;
4519;SDS011;2272;49.226;8.108;2022-11-15T15:07:41;13.07;;;8.00;;
4519;SDS011;2272;49.226;8.108;2022-11-15T15:10:09;6.93;;;5.87;;
4519;SDS011;2272;49.226;8.108;2022-11-15T15:12:37;13.37;;;8.53;;
4519;SDS011;2272;49.226;8.108;2022-11-15T15:15:04;11.63;;;7.87;;
4519;SDS011;2272;49.226;8.108;2022-11-15T15:17:32;9.67;;;6.50;;
4519;SDS011;2272;49.226;8.108;2022-11-15T15:19:58;8.10;;;6.73;;
4519;SDS011;2272;49.226;8.108;2022-11-15T15:22:25;8.27;;;5.80;;
4519;SDS011;2272;49.226;8.108;2022-11-15T15:24:55;7.23;;;5.77;;
4519;SDS011;2272;49.226;8.108;2022-11-15T15:27:23;8.33;;;5.87;;
4519;SDS011;2272;49.226;8.108;2022-11-15T15:29:50;6.60;;;5.23;;
4519;SDS011;2272;49.226;8.108;2022-11-15T15:32:16;6.10;;;5.50;;
4519;SDS011;2272;49.226;8.108;2022-11-15T15:34:43;5.90;;;5.30;;
4519;SDS011;2272;49.226;8.108;2022-11-15T15:37:19;7.63;;;5.53;;
4519;SDS011;2272;49.226;8.108;2022-11-15T15:39:49;5.37;;;4.87;;
4519;SDS011;2272;49.226;8.108;2022-11-15T15:42:15;5.87;;;5.13;;
4519;SDS011;2272;49.226;8.108;2022-11-15T15:44:44;5.30;;;4.80;;
4519;SDS011;2272;49.226;8.108;2022-11-15T15:47:11;6.87;;;5.10;;
4519;SDS011;2272;49.226;8.108;2022-11-15T15:49:38;5.70;;;4.63;;